sensor_id;sensor_type;location;lat;lon;timestamp;P1;durP1;ratioP1;P2;durP2;ratioP2
37891;SDS011;45797;47.466;9.486;2023-06-10T00:03:02;5.45;;;3.78;;
37891;SDS011;45797;47.466;9.486;2023-06-10T00:08:03;7.15;;;4.03;;
37891;SDS011;45797;47.466;9.486;2023-06-10T00:13:08;5.82;;;3.65;;
37891;SDS011;45797;47.466;9.486;2023-06-10T00:23:15;6.78;;;3.85;;
37891;SDS011;45797;47.466;9.486;2023-06-10T00:28:16;5.65;;;3.60;;
37891;SDS011;45797;47.466;9.486;2023-06-10T00:38:28;7.18;;;4.30;;
37891;SDS011;45797;47.466;9.486;2023-06-10T00:48:40;6.47;;;4.05;;
37891;SDS011;45797;47.466;9.486;2023-06-10T00:53:42;6.75;;;4.40;;
37891;SDS011;45797;47.466;9.486;2023-06-10T00:58:44;8.88;;;4.18;;
37891;SDS011;45797;47.466;9.486;2023-06-10T01:03:46;5.65;;;3.47;;
37891;SDS011;45797;47.466;9.486;2023-06-10T01:09:03;5.72;;;3.70;;
37891;SDS011;45797;47.466;9.486;2023-06-10T01:14:16;6.40;;;3.97;;
37891;SDS011;45797;47.466;9.486;2023-06-10T01:19:26;6.53;;;4.10;;
37891;SDS011;45797;47.466;9.486;2023-06-10T01:24:29;7.22;;;3.70;;
37891;SDS011;45797;47.466;9.486;2023-06-10T01:34:42;5.50;;;3.65;;
37891;SDS011;45797;47.466;9.486;2023-06-10T01:39:50;7.18;;;4.20;;
37891;SDS011;45797;47.466;9.486;2023-06-10T01:49:59;6.90;;;3.90;;
37891;SDS011;45797;47.466;9.486;2023-06-10T02:00:03;6.78;;;4.05;;
37891;SDS011;45797;47.466;9.486;2023-06-10T02:05:16;6.10;;;3.60;;
37891;SDS011;45797;47.466;9.486;2023-06-10T02:10:17;7.82;;;3.88;;
37891;SDS011;45797;47.466;9.486;2023-06-10T02:15:17;7.60;;;4.05;;
37891;SDS011;45797;47.466;9.486;2023-06-10T02:20:30;6.88;;;4.32;;
37891;SDS011;45797;47.466;9.486;2023-06-10T02:25:30;6.45;;;4.07;;
37891;SDS011;45797;47.466;9.486;2023-06-10T02:30:32;6.35;;;3.90;;
37891;SDS011;45797;47.466;9.486;2023-06-10T02:35:38;6.90;;;4.13;;
37891;SDS011;45797;47.466;9.486;2023-06-10T02:40:39;7.05;;;3.88;;
37891;SDS011;45797;47.466;9.486;2023-06-10T02:45:47;6.75;;;3.80;;
37891;SDS011;45797;47.466;9.486;2023-06-10T02:50:51;6.22;;;3.80;;
37891;SDS011;45797;47.466;9.486;2023-06-10T02:55:59;8.35;;;4.07;;
37891;SDS011;45797;47.466;9.486;2023-06-10T03:00:59;7.30;;;4.03;;
37891;SDS011;45797;47.466;9.486;2023-06-10T03:06:06;6.15;;;3.90;;
37891;SDS011;45797;47.466;9.486;2023-06-10T03:11:11;7.20;;;4.30;;
37891;SDS011;45797;47.466;9.486;2023-06-10T03:16:13;6.25;;;3.95;;
37891;SDS011;45797;47.466;9.486;2023-06-10T03:21:16;6.88;;;4.22;;
37891;SDS011;45797;47.466;9.486;2023-06-10T03:26:18;7.22;;;4.22;;
37891;SDS011;45797;47.466;9.486;2023-06-10T03:31:31;5.90;;;3.83;;
37891;SDS011;45797;47.466;9.486;2023-06-10T03:36:32;7.25;;;4.00;;
37891;SDS011;45797;47.466;9.486;2023-06-10T03:41:34;7.20;;;4.55;;
37891;SDS011;45797;47.466;9.486;2023-06-10T03:46:45;8.30;;;5.20;;
37891;SDS011;45797;47.466;9.486;2023-06-10T03:57:05;9.27;;;5.30;;
37891;SDS011;45797;47.466;9.486;2023-06-10T04:02:06;8.77;;;5.25;;
37891;SDS011;45797;47.466;9.486;2023-06-10T04:07:08;10.25;;;5.75;;
37891;SDS011;45797;47.466;9.486;2023-06-10T04:12:08;8.82;;;5.18;;
37891;SDS011;45797;47.466;9.486;2023-06-10T04:17:12;7.43;;;5.55;;
37891;SDS011;45797;47.466;9.486;2023-06-10T04:22:23;9.80;;;5.80;;
37891;SDS011;45797;47.466;9.486;2023-06-10T04:32:29;11.77;;;6.18;;
37891;SDS011;45797;47.466;9.486;2023-06-10T04:37:31;11.38;;;5.90;;
37891;SDS011;45797;47.466;9.486;2023-06-10T04:47:36;9.93;;;6.03;;
37891;SDS011;45797;47.466;9.486;2023-06-10T04:57:47;9.38;;;6.32;;
37891;SDS011;45797;47.466;9.486;2023-06-10T05:07:51;10.32;;;6.20;;
37891;SDS011;45797;47.466;9.486;2023-06-10T05:12:57;10.88;;;6.45;;
37891;SDS011;45797;47.466;9.486;2023-06-10T05:18:10;8.68;;;5.85;;
37891;SDS011;45797;47.466;9.486;2023-06-10T05:23:12;10.38;;;5.93;;
37891;SDS011;45797;47.466;9.486;2023-06-10T05:28:14;9.98;;;6.07;;
37891;SDS011;45797;47.466;9.486;2023-06-10T05:33:15;11.23;;;6.43;;
37891;SDS011;45797;47.466;9.486;2023-06-10T05:38:17;11.45;;;6.85;;
37891;SDS011;45797;47.466;9.486;2023-06-10T05:43:17;11.93;;;7.00;;
37891;SDS011;45797;47.466;9.486;2023-06-10T05:48:17;11.65;;;6.63;;
37891;SDS011;45797;47.466;9.486;2023-06-10T05:53:20;10.40;;;5.93;;
37891;SDS011;45797;47.466;9.486;2023-06-10T05:58:28;11.48;;;6.45;;
37891;SDS011;45797;47.466;9.486;2023-06-10T06:03:29;10.32;;;6.30;;
37891;SDS011;45797;47.466;9.486;2023-06-10T06:08:36;12.38;;;7.78;;
37891;SDS011;45797;47.466;9.486;2023-06-10T06:13:41;10.95;;;6.50;;
37891;SDS011;45797;47.466;9.486;2023-06-10T06:18:42;12.32;;;7.07;;
37891;SDS011;45797;47.466;9.486;2023-06-10T06:23:44;11.10;;;6.47;;
37891;SDS011;45797;47.466;9.486;2023-06-10T06:28:44;10.57;;;6.47;;
37891;SDS011;45797;47.466;9.486;2023-06-10T06:39:02;11.38;;;6.70;;
37891;SDS011;45797;47.466;9.486;2023-06-10T06:44:02;10.77;;;7.13;;
37891;SDS011;45797;47.466;9.486;2023-06-10T06:54:23;9.75;;;6.15;;
37891;SDS011;45797;47.466;9.486;2023-06-10T06:59:25;11.98;;;6.80;;
37891;SDS011;45797;47.466;9.486;2023-06-10T07:04:27;9.98;;;6.47;;
37891;SDS011;45797;47.466;9.486;2023-06-10T07:09:30;11.77;;;7.13;;
37891;SDS011;45797;47.466;9.486;2023-06-10T07:14:31;10.55;;;6.70;;
37891;SDS011;45797;47.466;9.486;2023-06-10T07:19:41;11.25;;;6.57;;
37891;SDS011;45797;47.466;9.486;2023-06-10T07:29:51;11.65;;;6.88;;
37891;SDS011;45797;47.466;9.486;2023-06-10T07:34:51;11.18;;;6.88;;
37891;SDS011;45797;47.466;9.486;2023-06-10T07:39:53;10.73;;;6.93;;
37891;SDS011;45797;47.466;9.486;2023-06-10T07:44:55;11.30;;;7.53;;
37891;SDS011;45797;47.466;9.486;2023-06-10T07:50:06;10.13;;;6.90;;
37891;SDS011;45797;47.466;9.486;2023-06-10T07:55:16;10.77;;;7.15;;
37891;SDS011;45797;47.466;9.486;2023-06-10T08:00:16;12.15;;;7.82;;
37891;SDS011;45797;47.466;9.486;2023-06-10T08:05:18;11.45;;;7.25;;
37891;SDS011;45797;47.466;9.486;2023-06-10T08:10:21;11.50;;;7.45;;
37891;SDS011;45797;47.466;9.486;2023-06-10T08:15:21;11.93;;;7.40;;
37891;SDS011;45797;47.466;9.486;2023-06-10T08:20:23;10.77;;;7.40;;
37891;SDS011;45797;47.466;9.486;2023-06-10T08:25:25;16.77;;;7.32;;
37891;SDS011;45797;47.466;9.486;2023-06-10T08:30:27;12.88;;;8.25;;
37891;SDS011;45797;47.466;9.486;2023-06-10T08:40:44;14.82;;;8.82;;
37891;SDS011;45797;47.466;9.486;2023-06-10T08:45:46;13.77;;;8.38;;
37891;SDS011;45797;47.466;9.486;2023-06-10T08:50:49;11.70;;;7.75;;
37891;SDS011;45797;47.466;9.486;2023-06-10T08:55:53;13.95;;;7.25;;
37891;SDS011;45797;47.466;9.486;2023-06-10T09:00:55;10.93;;;6.95;;
37891;SDS011;45797;47.466;9.486;2023-06-10T09:05:57;13.15;;;7.93;;
37891;SDS011;45797;47.466;9.486;2023-06-10T09:10:58;14.93;;;7.82;;
37891;SDS011;45797;47.466;9.486;2023-06-10T09:16:03;11.35;;;7.55;;
37891;SDS011;45797;47.466;9.486;2023-06-10T09:26:12;12.00;;;7.18;;
37891;SDS011;45797;47.466;9.486;2023-06-10T09:31:13;13.85;;;8.70;;
37891;SDS011;45797;47.466;9.486;2023-06-10T09:36:22;11.02;;;7.38;;
37891;SDS011;45797;47.466;9.486;2023-06-10T09:46:48;11.10;;;7.13;;
37891;SDS011;45797;47.466;9.486;2023-06-10T09:51:52;11.93;;;7.38;;
37891;SDS011;45797;47.466;9.486;2023-06-10T10:02:13;9.73;;;6.80;;
37891;SDS011;45797;47.466;9.486;2023-06-10T10:07:16;10.13;;;7.00;;
37891;SDS011;45797;47.466;9.486;2023-06-10T10:12:17;12.10;;;7.68;;
37891;SDS011;45797;47.466;9.486;2023-06-10T10:17:19;10.90;;;7.45;;
37891;SDS011;45797;47.466;9.486;2023-06-10T10:22:26;11.43;;;7.25;;
37891;SDS011;45797;47.466;9.486;2023-06-10T10:33:16;9.10;;;6.35;;
37891;SDS011;45797;47.466;9.486;2023-06-10T10:38:19;9.32;;;6.07;;
37891;SDS011;45797;47.466;9.486;2023-06-10T10:48:51;7.63;;;5.28;;
37891;SDS011;45797;47.466;9.486;2023-06-10T11:00:02;7.32;;;5.00;;
37891;SDS011;45797;47.466;9.486;2023-06-10T11:21:00;7.55;;;4.72;;
37891;SDS011;45797;47.466;9.486;2023-06-10T11:31:32;9.13;;;5.18;;
37891;SDS011;45797;47.466;9.486;2023-06-10T11:36:45;6.95;;;4.50;;
37891;SDS011;45797;47.466;9.486;2023-06-10T11:41:46;7.68;;;4.97;;
37891;SDS011;45797;47.466;9.486;2023-06-10T11:46:56;5.93;;;4.57;;
37891;SDS011;45797;47.466;9.486;2023-06-10T11:51:56;9.10;;;4.60;;
37891;SDS011;45797;47.466;9.486;2023-06-10T11:56:59;8.00;;;4.28;;
37891;SDS011;45797;47.466;9.486;2023-06-10T12:02:04;6.93;;;4.30;;
37891;SDS011;45797;47.466;9.486;2023-06-10T12:07:18;7.05;;;4.82;;
37891;SDS011;45797;47.466;9.486;2023-06-10T12:22:40;10.52;;;5.28;;
37891;SDS011;45797;47.466;9.486;2023-06-10T12:27:53;7.15;;;5.47;;
37891;SDS011;45797;47.466;9.486;2023-06-10T12:32:54;7.95;;;5.00;;
37891;SDS011;45797;47.466;9.486;2023-06-10T12:38:04;7.97;;;5.65;;
37891;SDS011;45797;47.466;9.486;2023-06-10T12:43:09;7.55;;;5.57;;
37891;SDS011;45797;47.466;9.486;2023-06-10T12:48:22;8.25;;;6.13;;
37891;SDS011;45797;47.466;9.486;2023-06-10T12:53:33;6.72;;;5.30;;
37891;SDS011;45797;47.466;9.486;2023-06-10T12:58:35;7.85;;;5.70;;
37891;SDS011;45797;47.466;9.486;2023-06-10T13:03:35;6.60;;;5.28;;
37891;SDS011;45797;47.466;9.486;2023-06-10T13:08:39;8.23;;;5.30;;
37891;SDS011;45797;47.466;9.486;2023-06-10T13:13:41;7.32;;;5.57;;
37891;SDS011;45797;47.466;9.486;2023-06-10T13:18:43;7.38;;;5.60;;
37891;SDS011;45797;47.466;9.486;2023-06-10T13:23:46;7.47;;;5.38;;
37891;SDS011;45797;47.466;9.486;2023-06-10T13:29:01;8.68;;;5.35;;
37891;SDS011;45797;47.466;9.486;2023-06-10T13:34:14;7.88;;;5.15;;
37891;SDS011;45797;47.466;9.486;2023-06-10T13:39:16;6.97;;;5.28;;
37891;SDS011;45797;47.466;9.486;2023-06-10T13:44:19;8.57;;;5.32;;
37891;SDS011;45797;47.466;9.486;2023-06-10T13:49:20;6.82;;;4.97;;
37891;SDS011;45797;47.466;9.486;2023-06-10T13:54:22;10.30;;;5.10;;
37891;SDS011;45797;47.466;9.486;2023-06-10T13:59:25;8.52;;;4.78;;
37891;SDS011;45797;47.466;9.486;2023-06-10T14:04:25;6.47;;;4.80;;
37891;SDS011;45797;47.466;9.486;2023-06-10T14:09:26;6.05;;;4.45;;
37891;SDS011;45797;47.466;9.486;2023-06-10T14:14:44;6.45;;;4.90;;
37891;SDS011;45797;47.466;9.486;2023-06-10T14:25:11;5.45;;;4.13;;
37891;SDS011;45797;47.466;9.486;2023-06-10T14:30:21;6.22;;;4.50;;
37891;SDS011;45797;47.466;9.486;2023-06-10T14:35:28;5.65;;;4.00;;
37891;SDS011;45797;47.466;9.486;2023-06-10T14:40:36;5.63;;;4.20;;
37891;SDS011;45797;47.466;9.486;2023-06-10T14:45:38;7.25;;;4.22;;
37891;SDS011;45797;47.466;9.486;2023-06-10T14:50:47;5.15;;;3.70;;
37891;SDS011;45797;47.466;9.486;2023-06-10T14:55:51;5.32;;;3.90;;
37891;SDS011;45797;47.466;9.486;2023-06-10T15:00:59;6.15;;;4.25;;
37891;SDS011;45797;47.466;9.486;2023-06-10T15:06:02;5.03;;;3.80;;
37891;SDS011;45797;47.466;9.486;2023-06-10T15:11:12;7.57;;;4.03;;
37891;SDS011;45797;47.466;9.486;2023-06-10T15:16:14;6.05;;;4.00;;
37891;SDS011;45797;47.466;9.486;2023-06-10T15:26:19;5.38;;;3.53;;
37891;SDS011;45797;47.466;9.486;2023-06-10T15:31:20;4.63;;;3.30;;
37891;SDS011;45797;47.466;9.486;2023-06-10T15:36:21;4.28;;;3.22;;
37891;SDS011;45797;47.466;9.486;2023-06-10T15:41:23;4.43;;;3.42;;
37891;SDS011;45797;47.466;9.486;2023-06-10T15:46:25;10.88;;;3.70;;
37891;SDS011;45797;47.466;9.486;2023-06-10T15:51:28;7.00;;;3.75;;
37891;SDS011;45797;47.466;9.486;2023-06-10T15:56:30;4.93;;;3.05;;
37891;SDS011;45797;47.466;9.486;2023-06-10T16:01:30;4.20;;;3.25;;
37891;SDS011;45797;47.466;9.486;2023-06-10T16:06:32;4.03;;;3.03;;
37891;SDS011;45797;47.466;9.486;2023-06-10T16:16:51;3.78;;;2.70;;
37891;SDS011;45797;47.466;9.486;2023-06-10T16:21:53;4.00;;;3.13;;
37891;SDS011;45797;47.466;9.486;2023-06-10T16:26:53;4.60;;;3.47;;
37891;SDS011;45797;47.466;9.486;2023-06-10T16:31:53;3.60;;;2.90;;
37891;SDS011;45797;47.466;9.486;2023-06-10T16:37:02;5.05;;;2.70;;
37891;SDS011;45797;47.466;9.486;2023-06-10T16:42:03;3.20;;;2.63;;
37891;SDS011;45797;47.466;9.486;2023-06-10T16:47:06;5.43;;;2.90;;
37891;SDS011;45797;47.466;9.486;2023-06-10T16:52:07;5.00;;;3.10;;
37891;SDS011;45797;47.466;9.486;2023-06-10T16:57:08;4.03;;;2.70;;
37891;SDS011;45797;47.466;9.486;2023-06-10T17:02:10;3.47;;;2.70;;
37891;SDS011;45797;47.466;9.486;2023-06-10T17:07:11;3.22;;;2.40;;
37891;SDS011;45797;47.466;9.486;2023-06-10T17:12:26;3.22;;;2.35;;
37891;SDS011;45797;47.466;9.486;2023-06-10T17:17:27;3.35;;;2.33;;
37891;SDS011;45797;47.466;9.486;2023-06-10T17:22:27;3.40;;;2.22;;
37891;SDS011;45797;47.466;9.486;2023-06-10T17:27:28;3.42;;;2.40;;
37891;SDS011;45797;47.466;9.486;2023-06-10T17:32:29;4.25;;;2.45;;
37891;SDS011;45797;47.466;9.486;2023-06-10T17:37:33;3.40;;;2.70;;
37891;SDS011;45797;47.466;9.486;2023-06-10T17:42:39;3.20;;;2.40;;
37891;SDS011;45797;47.466;9.486;2023-06-10T17:52:44;3.83;;;2.33;;
37891;SDS011;45797;47.466;9.486;2023-06-10T18:02:47;3.90;;;2.30;;
37891;SDS011;45797;47.466;9.486;2023-06-10T18:07:47;3.72;;;2.30;;
37891;SDS011;45797;47.466;9.486;2023-06-10T18:12:48;3.33;;;2.42;;
37891;SDS011;45797;47.466;9.486;2023-06-10T18:17:54;3.35;;;2.42;;
37891;SDS011;45797;47.466;9.486;2023-06-10T18:22:55;3.95;;;2.63;;
37891;SDS011;45797;47.466;9.486;2023-06-10T18:27:55;3.92;;;2.70;;
37891;SDS011;45797;47.466;9.486;2023-06-10T18:32:55;3.80;;;2.75;;
37891;SDS011;45797;47.466;9.486;2023-06-10T18:38:04;4.07;;;2.92;;
37891;SDS011;45797;47.466;9.486;2023-06-10T18:43:06;6.28;;;3.08;;
37891;SDS011;45797;47.466;9.486;2023-06-10T18:48:15;5.28;;;3.17;;
37891;SDS011;45797;47.466;9.486;2023-06-10T18:53:26;4.30;;;2.47;;
37891;SDS011;45797;47.466;9.486;2023-06-10T19:03:36;4.07;;;2.78;;
37891;SDS011;45797;47.466;9.486;2023-06-10T19:08:36;4.93;;;3.13;;
37891;SDS011;45797;47.466;9.486;2023-06-10T19:13:51;5.13;;;2.88;;
37891;SDS011;45797;47.466;9.486;2023-06-10T19:18:51;6.72;;;3.00;;
37891;SDS011;45797;47.466;9.486;2023-06-10T19:23:53;4.68;;;3.10;;
37891;SDS011;45797;47.466;9.486;2023-06-10T19:28:55;5.10;;;3.17;;
37891;SDS011;45797;47.466;9.486;2023-06-10T19:44:12;7.13;;;3.20;;
37891;SDS011;45797;47.466;9.486;2023-06-10T19:49:28;5.30;;;3.38;;
37891;SDS011;45797;47.466;9.486;2023-06-10T19:54:30;5.57;;;3.67;;
37891;SDS011;45797;47.466;9.486;2023-06-10T20:04:36;5.75;;;3.08;;
37891;SDS011;45797;47.466;9.486;2023-06-10T20:09:37;6.30;;;3.47;;
37891;SDS011;45797;47.466;9.486;2023-06-10T20:19:56;5.10;;;3.13;;
37891;SDS011;45797;47.466;9.486;2023-06-10T20:24:57;4.68;;;3.17;;
37891;SDS011;45797;47.466;9.486;2023-06-10T20:29:58;6.53;;;3.60;;
37891;SDS011;45797;47.466;9.486;2023-06-10T20:35:08;5.55;;;3.65;;
37891;SDS011;45797;47.466;9.486;2023-06-10T20:40:09;4.72;;;2.95;;
37891;SDS011;45797;47.466;9.486;2023-06-10T20:45:23;3.67;;;2.72;;
37891;SDS011;45797;47.466;9.486;2023-06-10T20:55:33;6.28;;;3.22;;
37891;SDS011;45797;47.466;9.486;2023-06-10T21:00:34;4.93;;;3.05;;
37891;SDS011;45797;47.466;9.486;2023-06-10T21:05:47;6.10;;;3.20;;
37891;SDS011;45797;47.466;9.486;2023-06-10T21:10:49;5.38;;;3.38;;
37891;SDS011;45797;47.466;9.486;2023-06-10T21:16:02;4.90;;;3.22;;
37891;SDS011;45797;47.466;9.486;2023-06-10T21:21:04;6.10;;;3.20;;
37891;SDS011;45797;47.466;9.486;2023-06-10T21:26:14;5.03;;;3.20;;
37891;SDS011;45797;47.466;9.486;2023-06-10T21:31:14;5.85;;;3.30;;
37891;SDS011;45797;47.466;9.486;2023-06-10T21:36:32;6.95;;;3.90;;
37891;SDS011;45797;47.466;9.486;2023-06-10T21:41:39;5.93;;;3.60;;
37891;SDS011;45797;47.466;9.486;2023-06-10T21:46:54;5.57;;;3.20;;
37891;SDS011;45797;47.466;9.486;2023-06-10T21:51:57;5.57;;;3.20;;
37891;SDS011;45797;47.466;9.486;2023-06-10T21:56:58;5.57;;;3.47;;
37891;SDS011;45797;47.466;9.486;2023-06-10T22:07:09;5.35;;;3.05;;
37891;SDS011;45797;47.466;9.486;2023-06-10T22:12:10;4.75;;;3.10;;
37891;SDS011;45797;47.466;9.486;2023-06-10T22:17:10;5.53;;;3.05;;
37891;SDS011;45797;47.466;9.486;2023-06-10T22:22:12;5.60;;;3.10;;
37891;SDS011;45797;47.466;9.486;2023-06-10T22:27:13;4.93;;;3.10;;
37891;SDS011;45797;47.466;9.486;2023-06-10T22:32:14;5.57;;;3.47;;
37891;SDS011;45797;47.466;9.486;2023-06-10T22:37:15;5.18;;;3.38;;
37891;SDS011;45797;47.466;9.486;2023-06-10T22:42:15;4.68;;;2.92;;
37891;SDS011;45797;47.466;9.486;2023-06-10T22:47:16;4.78;;;3.20;;
37891;SDS011;45797;47.466;9.486;2023-06-10T22:52:28;5.00;;;3.10;;
37891;SDS011;45797;47.466;9.486;2023-06-10T22:57:29;5.53;;;3.05;;
37891;SDS011;45797;47.466;9.486;2023-06-10T23:02:31;6.32;;;3.20;;
37891;SDS011;45797;47.466;9.486;2023-06-10T23:07:33;6.85;;;3.20;;
37891;SDS011;45797;47.466;9.486;2023-06-10T23:12:34;6.60;;;3.42;;
37891;SDS011;45797;47.466;9.486;2023-06-10T23:17:36;5.60;;;3.20;;
37891;SDS011;45797;47.466;9.486;2023-06-10T23:22:36;5.80;;;3.55;;
37891;SDS011;45797;47.466;9.486;2023-06-10T23:32:46;6.10;;;3.30;;
37891;SDS011;45797;47.466;9.486;2023-06-10T23:37:48;5.70;;;3.13;;
37891;SDS011;45797;47.466;9.486;2023-06-10T23:42:49;6.38;;;3.30;;
37891;SDS011;45797;47.466;9.486;2023-06-10T23:52:54;5.25;;;3.38;;
37891;SDS011;45797;47.466;9.486;2023-06-10T23:57:55;6.18;;;3.22;;
